createdAt,value
2022-11-21T00:02:43.694Z,5.64
2022-11-21T00:07:38.550Z,5.70
2022-11-21T00:12:48.927Z,5.78
2022-11-21T00:17:43.583Z,5.63
2022-11-21T00:22:54.146Z,5.69
2022-11-21T00:28:08.567Z,5.76
2022-11-21T00:33:13.012Z,5.70
2022-11-21T00:38:23.717Z,5.74
2022-11-21T00:43:19.162Z,5.55
2022-11-21T00:48:39.645Z,5.59
2022-11-21T00:53:51.426Z,5.88
2022-11-21T00:58:52.323Z,5.75
2022-11-21T01:03:48.667Z,5.74
2022-11-21T01:08:50.979Z,5.75
2022-11-21T01:13:47.545Z,5.74
2022-11-21T01:18:44.263Z,5.66
2022-11-21T01:23:38.985Z,5.74
2022-11-21T01:29:01.689Z,5.81
2022-11-21T01:34:22.632Z,5.74
2022-11-21T01:39:25.341Z,5.77
2022-11-21T01:45:03.321Z,5.83
2022-11-21T01:49:56.758Z,5.78
2022-11-21T01:54:58.561Z,5.82
2022-11-21T02:00:21.568Z,5.91
2022-11-21T02:05:22.157Z,5.89
2022-11-21T02:10:21.103Z,6.02
2022-11-21T02:15:15.978Z,5.94
2022-11-21T02:20:48.767Z,5.98
2022-11-21T02:25:47.113Z,5.96
2022-11-21T02:31:20.527Z,5.96
2022-11-21T02:36:47.567Z,6.18
2022-11-21T02:41:52.757Z,5.96
2022-11-21T02:47:01.852Z,5.94
2022-11-21T02:51:55.191Z,6.19
2022-11-21T02:56:57.664Z,6.11
2022-11-21T03:01:51.231Z,6.11
2022-11-21T03:06:51.610Z,6.05
2022-11-21T03:11:44.908Z,5.99
2022-11-21T03:16:39.937Z,5.89
2022-11-21T03:21:33.301Z,5.98
2022-11-21T03:26:26.763Z,5.99
2022-11-21T03:31:20.179Z,5.95
2022-11-21T03:36:14.832Z,5.86
2022-11-21T03:41:53.381Z,5.92
2022-11-21T03:46:48.342Z,5.94
2022-11-21T03:51:43.836Z,6.01
2022-11-21T03:56:44.399Z,5.95
2022-11-21T04:01:41.305Z,5.95
2022-11-21T04:06:40.934Z,5.84
2022-11-21T04:11:35.936Z,5.88
2022-11-21T04:16:33.401Z,5.82
2022-11-21T04:27:36.126Z,5.70
2022-11-21T04:32:50.811Z,5.83
2022-11-21T04:37:58.048Z,5.79
2022-11-21T04:43:41.287Z,5.86
2022-11-21T04:54:13.013Z,5.90
2022-11-21T04:59:12.876Z,5.87
2022-11-21T05:04:21.822Z,5.83
2022-11-21T05:09:15.180Z,5.87
2022-11-21T05:14:32.079Z,5.88
2022-11-21T05:19:25.591Z,5.86
2022-11-21T05:24:48.252Z,5.98
2022-11-21T05:30:11.991Z,5.89
2022-11-21T05:35:12.124Z,5.88
2022-11-21T05:40:50.854Z,5.79
2022-11-21T05:45:45.507Z,5.77
2022-11-21T05:50:38.826Z,5.81
2022-11-21T05:55:35.268Z,5.63
2022-11-21T06:00:29.613Z,5.57
2022-11-21T06:05:24.695Z,5.73
2022-11-21T06:10:18.993Z,5.80
2022-11-21T06:15:12.671Z,5.80
2022-11-21T06:20:57.966Z,5.94
2022-11-21T06:26:43.623Z,5.99
2022-11-21T06:31:38.139Z,6.03
2022-11-21T06:36:32.826Z,5.84
2022-11-21T06:41:36.181Z,5.86
2022-11-21T06:46:30.290Z,5.99
2022-11-21T06:51:36.620Z,5.91
2022-11-21T06:56:33.444Z,6.04
2022-11-21T07:01:27.316Z,6.16
2022-11-21T07:06:24.492Z,6.09
2022-11-21T07:11:26.035Z,6.08
2022-11-21T07:16:33.976Z,6.00
2022-11-21T07:21:36.572Z,6.09
2022-11-21T07:26:33.833Z,5.95
2022-11-21T07:31:28.569Z,5.90
2022-11-21T07:36:21.898Z,5.96
2022-11-21T07:41:15.470Z,6.02
2022-11-21T07:46:17.909Z,6.07
2022-11-21T07:51:12.702Z,5.98
2022-11-21T07:56:09.630Z,6.04
2022-11-21T08:01:06.347Z,6.01
2022-11-21T08:06:15.839Z,6.13
2022-11-21T08:11:10.592Z,6.04
2022-11-21T08:16:05.393Z,6.12
2022-11-21T08:21:01.396Z,6.18
2022-11-21T08:25:57.575Z,6.10
2022-11-21T08:30:52.263Z,6.19
2022-11-21T08:35:45.660Z,6.23
2022-11-21T08:40:42.033Z,6.26
2022-11-21T08:45:37.271Z,6.32
2022-11-21T08:50:32.668Z,6.32
2022-11-21T08:55:26.075Z,6.30
2022-11-21T09:00:20.260Z,6.57
2022-11-21T09:05:13.562Z,6.61
2022-11-21T09:10:10.461Z,6.52
2022-11-21T09:15:21.216Z,6.72
2022-11-21T09:20:15.361Z,6.90
2022-11-21T09:25:13.500Z,6.95
2022-11-21T09:30:20.470Z,6.85
2022-11-21T09:35:13.995Z,6.92
2022-11-21T09:40:14.708Z,6.94
2022-11-21T09:45:17.037Z,7.05
2022-11-21T09:50:33.562Z,7.29
2022-11-21T09:55:43.319Z,7.49
2022-11-21T10:00:43.368Z,7.49
2022-11-21T10:06:28.842Z,7.72
2022-11-21T10:12:14.045Z,7.82
2022-11-21T10:17:27.910Z,7.69
2022-11-21T10:22:43.107Z,7.68
2022-11-21T10:27:47.853Z,7.77
2022-11-21T10:32:45.801Z,7.85
2022-11-21T10:37:43.276Z,7.84
2022-11-21T10:42:47.070Z,7.95
2022-11-21T10:47:40.507Z,7.97
2022-11-21T10:52:49.299Z,8.09
2022-11-21T10:57:47.539Z,8.19
2022-11-21T11:02:42.205Z,7.99
2022-11-21T11:07:35.568Z,7.87
2022-11-21T11:12:45.760Z,7.85
2022-11-21T11:17:40.655Z,7.79
2022-11-21T11:22:34.585Z,7.80
2022-11-21T11:27:31.519Z,7.90
2022-11-21T11:32:25.410Z,7.97
2022-11-21T11:37:29.914Z,8.06
2022-11-21T11:43:24.452Z,8.18
2022-11-21T11:48:20.102Z,8.14
2022-11-21T11:53:21.112Z,8.03
2022-11-21T11:58:26.196Z,8.15
2022-11-21T12:03:26.156Z,8.19
2022-11-21T12:08:41.524Z,8.14
2022-11-21T12:13:38.452Z,8.18
2022-11-21T12:18:41.070Z,8.25
2022-11-21T12:23:44.955Z,8.23
2022-11-21T12:29:07.391Z,8.13
2022-11-21T12:34:21.148Z,8.04
2022-11-21T12:39:57.358Z,7.98
2022-11-21T12:45:14.171Z,7.91
2022-11-21T12:50:43.085Z,7.91
2022-11-21T12:57:28.901Z,8.39
2022-11-21T13:22:10.158Z,8.29
2022-11-21T14:05:30.790Z,8.16
2022-11-21T14:10:34.636Z,8.04
2022-11-21T14:15:40.188Z,8.01
2022-11-21T14:47:01.841Z,7.68
2022-11-21T14:52:04.571Z,7.66
2022-11-21T14:57:09.198Z,7.65
2022-11-21T15:02:08.867Z,7.74
2022-11-21T15:07:31.336Z,7.78
2022-11-21T15:12:45.870Z,7.66
2022-11-21T15:18:03.461Z,7.68
2022-11-21T15:23:02.295Z,7.62
2022-11-21T15:28:18.414Z,7.70
2022-11-21T15:33:36.647Z,7.65
2022-11-21T15:38:53.886Z,7.74
2022-11-21T15:49:41.869Z,7.68
2022-11-21T16:13:02.058Z,7.63
2022-11-21T16:17:55.532Z,7.53
2022-11-21T16:22:50.536Z,7.50
2022-11-21T16:27:47.342Z,7.31
2022-11-21T16:32:42.143Z,7.47
2022-11-21T16:37:35.769Z,7.46
2022-11-21T16:48:58.306Z,7.60
2022-11-21T16:55:08.122Z,7.55
2022-11-21T17:00:07.004Z,7.43
2022-11-21T17:12:02.276Z,7.39
2022-11-21T17:17:37.781Z,7.41
2022-11-21T17:23:24.844Z,7.17
2022-11-21T17:28:18.203Z,7.13
2022-11-21T17:33:11.596Z,7.08
2022-11-21T17:38:06.313Z,7.03
2022-11-21T17:43:00.368Z,7.05
2022-11-21T17:47:54.154Z,7.04
2022-11-21T17:52:47.497Z,6.85
2022-11-21T17:57:44.745Z,6.85
2022-11-21T18:02:38.425Z,6.72
2022-11-21T18:07:54.797Z,6.69
2022-11-21T18:13:57.218Z,6.64
2022-11-21T18:19:20.527Z,6.73
2022-11-21T18:24:50.462Z,6.82
2022-11-21T18:30:34.761Z,6.79
2022-11-21T18:35:29.606Z,6.79
2022-11-21T18:41:47.301Z,6.76
2022-11-21T18:47:37.424Z,6.89
2022-11-21T18:53:06.886Z,6.90
2022-11-21T19:04:52.069Z,6.80
2022-11-21T19:10:42.041Z,6.69
2022-11-21T20:04:01.887Z,6.70
2022-11-21T20:15:20.629Z,6.64
2022-11-21T20:20:33.990Z,6.64
2022-11-21T20:25:51.352Z,6.65
2022-11-21T20:30:53.937Z,6.71
2022-11-21T20:35:52.290Z,6.75
2022-11-21T20:40:56.039Z,6.86
2022-11-21T20:46:13.093Z,6.87
2022-11-21T20:57:14.490Z,6.60
2022-11-21T21:02:34.682Z,6.66
2022-11-21T21:07:43.175Z,6.74
2022-11-21T21:13:01.507Z,6.63
2022-11-21T21:18:04.277Z,6.76
2022-11-21T21:23:28.197Z,6.86
2022-11-21T21:29:27.202Z,6.86
2022-11-21T21:35:05.142Z,6.77
2022-11-21T21:40:58.715Z,6.84
2022-11-21T21:46:46.097Z,6.84
2022-11-21T21:52:03.297Z,6.87
2022-11-21T21:57:21.477Z,6.89
2022-11-21T22:08:15.292Z,6.67
2022-11-21T22:13:14.242Z,6.76
2022-11-21T22:18:14.648Z,6.79
2022-11-21T22:23:46.509Z,6.86
2022-11-21T22:30:16.300Z,6.73
2022-11-21T22:35:36.537Z,6.69
2022-11-21T22:41:39.556Z,6.71
2022-11-21T22:53:37.068Z,6.83
2022-11-21T22:59:39.330Z,6.85
2022-11-21T23:04:53.524Z,6.85
2022-11-21T23:16:36.627Z,6.80
2022-11-21T23:22:00.918Z,6.67
2022-11-21T23:27:15.230Z,6.56
2022-11-21T23:32:33.472Z,6.59
2022-11-21T23:37:31.043Z,6.69
2022-11-21T23:42:37.350Z,6.77
2022-11-21T23:48:27.010Z,6.79
2022-11-21T23:53:41.104Z,6.66
2022-11-21T23:58:47.306Z,6.73
